createdAt,value
2023-01-06T00:12:48.834Z,5.93
2023-01-06T00:27:50.905Z,2.78
2023-01-06T00:42:52.911Z,3.70
2023-01-06T00:57:54.863Z,5.32
2023-01-06T01:12:56.820Z,5.72
2023-01-06T01:27:58.922Z,3.70
2023-01-06T01:43:00.843Z,5.30
2023-01-06T01:58:12.051Z,6.25
2023-01-06T02:13:13.997Z,5.25
2023-01-06T02:28:30.700Z,13.52
2023-01-06T02:44:00.447Z,7.40
2023-01-06T02:59:11.369Z,7.68
2023-01-06T03:14:27.935Z,7.00
2023-01-06T03:29:30.066Z,5.25
2023-01-06T03:44:45.132Z,3.72
2023-01-06T03:59:52.784Z,6.43
2023-01-06T04:14:54.727Z,6.47
2023-01-06T04:29:56.944Z,6.72
2023-01-06T04:44:58.856Z,11.07
2023-01-06T05:00:00.795Z,6.50
2023-01-06T05:15:03.313Z,12.27
2023-01-06T05:30:05.934Z,9.07
2023-01-06T05:45:08.690Z,5.03
2023-01-06T06:00:11.403Z,7.45
2023-01-06T06:15:13.362Z,7.50
2023-01-06T06:30:17.137Z,7.63
2023-01-06T06:45:19.324Z,7.13
2023-01-06T07:00:21.238Z,8.43
2023-01-06T07:15:23.173Z,6.85
2023-01-06T07:30:26.646Z,8.55
2023-01-06T07:45:28.628Z,7.90
2023-01-06T08:00:30.584Z,7.72
2023-01-06T08:15:32.560Z,5.18
2023-01-06T08:30:40.043Z,7.28
2023-01-06T08:45:42.064Z,5.57
2023-01-06T09:00:44.190Z,10.50
2023-01-06T09:15:49.108Z,7.15
2023-01-06T09:30:51.490Z,9.23
2023-01-06T09:46:01.794Z,10.93
2023-01-06T10:01:10.207Z,10.95
2023-01-06T10:16:27.326Z,8.47
2023-01-06T10:31:35.553Z,10.55
2023-01-06T10:46:38.076Z,8.90
2023-01-06T11:18:28.337Z,8.60
2023-01-06T11:33:33.266Z,9.80
2023-01-06T11:48:41.885Z,9.13
2023-01-06T12:03:51.278Z,8.43
2023-01-06T12:18:53.863Z,12.80
2023-01-06T12:34:18.105Z,15.40
2023-01-06T12:49:29.511Z,14.10
2023-01-06T13:04:57.661Z,17.23
2023-01-06T13:20:03.393Z,19.40
2023-01-06T13:35:15.142Z,20.15
2023-01-06T13:50:20.769Z,19.40
2023-01-06T14:05:22.897Z,22.15
2023-01-06T14:20:36.688Z,21.15
2023-01-06T14:35:46.038Z,20.55
2023-01-06T14:50:52.180Z,20.67
2023-01-06T15:06:17.413Z,27.38
2023-01-06T15:21:20.443Z,21.00
2023-01-06T15:36:24.108Z,29.33
2023-01-06T15:51:27.263Z,27.67
2023-01-06T16:06:34.503Z,28.83
2023-01-06T16:21:36.507Z,23.85
2023-01-06T16:36:38.457Z,24.52
2023-01-06T16:51:44.802Z,27.27
2023-01-06T17:06:47.047Z,28.27
2023-01-06T17:21:52.471Z,20.60
2023-01-06T17:36:56.409Z,10.95
2023-01-06T17:51:59.030Z,11.85
2023-01-06T18:07:01.148Z,9.13
2023-01-06T18:22:12.865Z,8.20
2023-01-06T18:37:15.227Z,10.65
2023-01-06T18:52:41.073Z,9.25
2023-01-06T19:07:44.111Z,7.82
2023-01-06T19:22:46.444Z,6.43
2023-01-06T19:37:49.610Z,5.03
2023-01-06T19:52:57.969Z,6.28
2023-01-06T20:08:00.039Z,9.43
2023-01-06T20:23:02.112Z,9.23
2023-01-06T20:38:04.393Z,7.72
2023-01-06T20:53:06.419Z,7.82
2023-01-06T21:08:08.457Z,6.18
2023-01-06T21:23:10.788Z,8.05
2023-01-06T21:38:12.977Z,7.43
2023-01-06T21:53:15.323Z,9.27
2023-01-06T22:08:17.880Z,8.32
2023-01-06T22:23:22.288Z,6.80
2023-01-06T22:38:24.975Z,7.50
2023-01-06T22:53:28.533Z,6.93
2023-01-06T23:08:32.766Z,7.30
2023-01-06T23:23:36.039Z,13.40
2023-01-06T23:38:38.516Z,7.10
2023-01-06T23:53:40.949Z,10.77
